OMAL/AAN METAR and TAF weather

Enter ICAO airport designator
Station Type Date Time Source
OMAL METAR 2022/01/26 20:00 UTC NOAA

OMAL 262000Z 03006KT CAVOK 17/12 Q1017 NOSIG


Station Type Date Time Source
OMAL Decoded METAR 2022/01/26 20:00 UTC NOAA

Al Ain International Airport, United Arab Emirates (OMAL) 24-16N 055-36E 262M
Jan 26, 2022 - 03:00 PM EST / 2022.01.26 2000 UTC
Wind: from the NNE (030 degrees) at 7 MPH (6 KT):0
Visibility: greater than 7 mile(s):0
Temperature: 62 F (17 C)
Dew Point: 53 F (12 C)
Relative Humidity: 72%
Pressure (altimeter): 30.03 in. Hg (1017 hPa)
ob: OMAL 262000Z 03006KT CAVOK 17/12 Q1017 NOSIG
cycle: 20

Station Type Date Time Source
OMAL TAF 2022/01/26 18:07 UTC NOAA

TAF OMAL 261700Z 2618/2800 36005KT 8000 NSC
BECMG 2620/2622 10006KT PROB30 2623/2704 3000 HZ
BECMG 2702/2704 16011KT
BECMG 2714/2716 30008KT
BECMG 2719/2721 10007KT

Example: see airport list